Time;durP1;ratioP1;P1;durP2;ratioP2;P2;SDS_P1;SDS_P2;PMS_P1;PMS_P2;Temp;Humidity;BMP_temperature;BMP_pressure;BME280_temperature;BME280_humidity;BME280_pressure;Samples;Min_cycle;Max_cycle;Signal;HPM_P1;HPM_P2
2022/06/24 00:02:52;;;;;;;7.45;4.30;;;;;;;20.15;60.86;100416.55;3461979;83;98715;-79
2022/06/24 00:07:53;;;;;;;10.03;4.47;;;;;;;20.08;60.63;100422.34;3459549;83;98795;-79
2022/06/24 00:12:55;;;;;;;8.48;4.35;;;;;;;20.04;61.99;100423.02;3460985;83;99105;-79
2022/06/24 00:17:58;;;;;;;8.85;4.75;;;;;;;20.06;62.44;100419.80;3466910;83;98715;-77
2022/06/24 00:22:59;;;;;;;9.30;5.42;;;;;;;20.02;62.25;100424.69;3409611;85;99212;-77
2022/06/24 00:28:09;;;;;;;10.18;4.92;;;;;;;19.92;62.13;100436.92;3420852;83;98828;-78
2022/06/24 00:33:23;;;;;;;11.20;4.97;;;;;;;19.87;62.90;100425.69;3460773;83;99059;-77
2022/06/24 00:38:28;;;;;;;12.78;6.30;;;;;;;19.80;62.63;100441.24;3451747;83;99042;-77
2022/06/24 00:43:49;;;;;;;10.75;5.53;;;;;;;19.74;62.98;100438.02;3451373;83;98868;-77
2022/06/24 00:48:57;;;;;;;12.33;6.10;;;;;;;19.72;63.77;100431.46;3460947;84;33875;-77
2022/06/24 00:54:02;;;;;;;10.32;6.50;;;;;;;19.75;64.50;100425.61;3452692;83;98862;-77
2022/06/24 00:59:07;;;;;;;9.88;5.62;;;;;;;19.74;64.88;100435.22;3461784;83;98888;-77
2022/06/24 01:04:10;;;;;;;10.17;5.43;;;;;;;19.71;65.23;100434.69;3456732;83;99284;-77
2022/06/24 01:09:13;;;;;;;9.23;5.87;;;;;;;19.61;64.26;100429.55;3468849;83;98153;-77
2022/06/24 01:14:14;;;;;;;10.03;5.72;;;;;;;19.50;64.29;100432.46;3474983;83;99213;-77
2022/06/24 01:19:15;;;;;;;10.43;5.95;;;;;;;19.48;65.41;100431.50;3472862;83;32543;-76
2022/06/24 01:24:23;;;;;;;9.28;5.85;;;;;;;19.46;65.98;100431.13;3453721;83;98958;-78
2022/06/24 01:29:25;;;;;;;10.72;6.45;;;;;;;19.42;66.16;100433.25;3446619;83;98746;-77
2022/06/24 01:34:26;;;;;;;12.07;6.20;;;;;;;19.36;65.94;100423.03;3452101;85;98883;-76
2022/06/24 01:39:27;;;;;;;10.35;6.03;;;;;;;19.32;66.75;100416.75;3452058;83;98962;-77
2022/06/24 01:44:29;;;;;;;11.38;5.62;;;;;;;19.31;66.79;100409.60;3460575;83;99398;-78
2022/06/24 01:49:29;;;;;;;10.78;5.45;;;;;;;19.25;67.20;100415.53;3477274;83;30639;-77
2022/06/24 01:54:30;;;;;;;10.43;5.72;;;;;;;19.18;66.74;100408.08;3374295;85;99033;-77
2022/06/24 01:59:31;;;;;;;9.80;5.40;;;;;;;19.13;67.44;100401.62;3367764;85;99230;-78
2022/06/24 02:04:33;;;;;;;11.20;5.78;;;;;;;19.03;66.70;100404.05;3415474;84;98963;-78
2022/06/24 02:13:26;;;;;;;11.65;5.85;;;;;;;19.01;67.68;100407.13;3419953;83;99604;-78
2022/06/24 02:14:37;;;;;;;12.05;6.22;;;;;;;18.97;68.20;100407.19;3412086;85;99076;-78
2022/06/24 02:19:38;;;;;;;12.78;6.53;;;;;;;18.91;67.62;100410.94;3420220;83;99038;-78
2022/06/24 02:24:39;;;;;;;11.35;6.90;;;;;;;18.91;68.91;100406.13;3396675;85;99078;-77
2022/06/24 02:29:40;;;;;;;12.23;6.00;;;;;;;18.95;69.47;100404.06;3432571;85;98846;-78
2022/06/24 02:34:42;;;;;;;11.43;5.85;;;;;;;18.96;68.99;100402.06;3415430;83;98833;-78
2022/06/24 02:39:43;;;;;;;11.53;6.45;;;;;;;18.94;69.91;100405.88;3424473;84;99153;-78
2022/06/24 02:44:44;;;;;;;12.37;7.03;;;;;;;18.90;69.94;100407.95;3401598;83;99440;-76
2022/06/24 02:49:45;;;;;;;14.55;7.45;;;;;;;18.89;70.35;100401.61;3425700;84;99396;-78
2022/06/24 02:54:46;;;;;;;12.10;6.80;;;;;;;18.86;70.65;100403.86;3405257;84;98652;-78
2022/06/24 02:59:47;;;;;;;10.15;6.12;;;;;;;18.82;70.61;100403.17;3422491;83;98993;-78
2022/06/24 03:04:48;;;;;;;12.13;7.03;;;;;;;18.81;70.55;100408.55;3371598;85;99276;-77
2022/06/24 03:09:49;;;;;;;12.82;6.58;;;;;;;18.76;70.77;100407.70;3422615;84;99523;-78
2022/06/24 03:14:50;;;;;;;11.20;6.58;;;;;;;18.74;71.50;100407.33;3416854;84;98534;-77
2022/06/24 03:19:51;;;;;;;11.90;7.00;;;;;;;18.71;71.31;100408.20;3426266;84;99047;-78
2022/06/24 03:24:52;;;;;;;9.28;5.87;;;;;;;18.60;70.53;100409.05;3426050;83;99124;-78
2022/06/24 03:29:54;;;;;;;10.15;6.72;;;;;;;18.50;71.11;100400.30;3431950;84;98694;-77
2022/06/24 03:34:55;;;;;;;10.10;6.72;;;;;;;18.43;70.48;100403.22;3417788;84;98893;-78
2022/06/24 03:39:58;;;;;;;12.53;7.23;;;;;;;18.44;71.46;100405.41;3414849;84;98224;-78
2022/06/24 03:44:59;;;;;;;12.50;7.03;;;;;;;18.41;71.21;100401.48;3413844;84;99343;-78
2022/06/24 03:50:00;;;;;;;15.83;7.57;;;;;;;18.37;71.29;100401.39;3463368;83;99004;-78
2022/06/24 03:55:01;;;;;;;13.20;7.13;;;;;;;18.34;71.10;100405.02;3441742;84;98600;-78
2022/06/24 04:00:03;;;;;;;11.60;6.57;;;;;;;18.22;70.48;100409.83;3493834;80;97956;-77
2022/06/24 04:05:05;;;;;;;12.55;6.70;;;;;;;18.12;70.69;100410.22;3494154;82;99106;-77
2022/06/24 04:10:07;;;;;;;13.03;7.72;;;;;;;18.09;71.06;100411.69;3510093;81;98974;-78
2022/06/24 04:15:15;;;;;;;13.20;6.70;;;;;;;18.06;70.96;100408.36;3566153;81;99462;-78
2022/06/24 04:20:18;;;;;;;10.38;5.92;;;;;;;18.07;71.13;100417.68;3570967;80;99617;-78
2022/06/24 04:25:19;;;;;;;12.65;6.03;;;;;;;18.10;71.35;100403.51;3560189;81;98574;-78
2022/06/24 04:30:20;;;;;;;13.73;7.33;;;;;;;18.12;71.50;100398.28;3560235;81;98199;-78
2022/06/24 04:35:21;;;;;;;13.13;6.87;;;;;;;18.17;71.57;100407.53;3561657;81;98975;-78
2022/06/24 04:40:22;;;;;;;12.63;7.27;;;;;;;18.23;71.43;100411.39;3559441;81;99014;-78
2022/06/24 04:45:23;;;;;;;10.73;6.10;;;;;;;18.28;71.19;100404.73;3537427;81;99434;-78
2022/06/24 04:50:24;;;;;;;12.43;6.90;;;;;;;18.34;71.10;100410.59;3540403;81;98607;-78
2022/06/24 04:55:25;;;;;;;13.43;7.13;;;;;;;18.47;71.40;100411.53;3559036;80;98866;-78
2022/06/24 05:00:26;;;;;;;11.93;6.83;;;;;;;18.62;70.94;100408.59;3543658;81;99064;-79
2022/06/24 05:05:29;;;;;;;10.60;6.90;;;;;;;18.78;70.83;100415.61;3539532;81;98875;-78
2022/06/24 05:10:30;;;;;;;13.40;6.53;;;;;;;18.98;70.41;100412.96;3541442;81;99293;-78
2022/06/24 05:15:31;;;;;;;17.52;6.95;;;;;;;19.27;70.30;100401.92;3535484;81;99055;-78
2022/06/24 05:20:32;;;;;;;11.40;6.37;;;;;;;19.70;69.86;100403.20;3549267;81;99076;-79
2022/06/24 05:25:33;;;;;;;14.80;6.83;;;;;;;20.28;68.63;100404.78;3538175;81;99404;-78
2022/06/24 05:30:35;;;;;;;16.93;5.77;;;;;;;20.95;67.85;100398.60;3549366;81;33964;-77
2022/06/24 05:35:36;;;;;;;9.87;5.23;;;;;;;21.72;66.04;100405.24;3537570;81;98987;-78
2022/06/24 05:40:37;;;;;;;10.10;5.67;;;;;;;22.50;65.21;100408.20;3551179;81;98270;-78
2022/06/24 05:45:38;;;;;;;11.80;5.15;;;;;;;23.41;63.18;100401.77;3524033;81;99000;-78
2022/06/24 05:50:40;;;;;;;17.37;5.45;;;;;;;24.27;60.53;100405.45;3569381;80;99123;-78
2022/06/24 05:55:41;;;;;;;13.60;5.10;;;;;;;25.11;59.21;100402.87;3530694;81;99326;-79
2022/06/24 06:00:42;;;;;;;8.98;4.22;;;;;;;25.64;55.42;100400.25;3559028;81;26471;-79
2022/06/24 06:05:43;;;;;;;15.60;5.10;;;;;;;26.29;54.43;100404.30;3563438;80;98663;-78
2022/06/24 06:10:45;;;;;;;10.80;4.28;;;;;;;26.70;52.10;100402.63;3561164;81;99300;-80
2022/06/24 06:15:46;;;;;;;14.87;4.95;;;;;;;27.29;50.61;100392.83;3553098;81;98820;-79
2022/06/24 06:20:47;;;;;;;11.95;4.58;;;;;;;27.84;50.15;100394.25;3557652;81;99496;-80
2022/06/24 06:25:48;;;;;;;10.15;4.42;;;;;;;28.33;48.26;100404.70;3567550;81;99054;-80
2022/06/24 06:30:50;;;;;;;12.93;4.10;;;;;;;28.74;47.30;100393.42;3556107;81;26473;-80
2022/06/24 06:35:51;;;;;;;8.18;4.33;;;;;;;28.86;45.61;100393.65;3537012;80;99103;-79
2022/06/24 06:40:52;;;;;;;9.20;3.85;;;;;;;29.03;44.84;100385.28;3574486;78;97890;-78
2022/06/24 06:45:53;;;;;;;8.03;3.87;;;;;;;29.30;44.50;100390.37;3560136;81;99229;-80
2022/06/24 06:50:59;;;;;;;8.03;3.98;;;;;;;29.52;44.14;100377.73;3550059;81;99224;-80
2022/06/24 06:56:00;;;;;;;6.62;3.58;;;;;;;29.83;42.75;100382.70;3547886;79;99182;-79
2022/06/24 07:01:01;;;;;;;11.12;3.42;;;;;;;30.04;42.20;100374.12;3528437;81;33301;-80
2022/06/24 07:06:02;;;;;;;7.58;3.60;;;;;;;30.50;40.99;100357.45;3557647;81;99070;-79
2022/06/24 07:11:04;;;;;;;7.30;4.05;;;;;;;30.56;40.48;100362.48;3546669;81;98687;-79
2022/06/24 07:16:10;;;;;;;7.90;3.85;;;;;;;30.66;40.41;100359.55;3540771;80;99269;-78
2022/06/24 07:21:13;;;;;;;10.45;4.10;;;;;;;30.99;39.64;100350.22;3538471;81;99164;-79
2022/06/24 07:26:14;;;;;;;8.10;3.77;;;;;;;31.23;38.67;100351.23;3543687;81;99109;-79
2022/06/24 07:31:20;;;;;;;8.68;3.72;;;;;;;31.21;38.02;100345.94;3548329;81;33314;-78
2022/06/24 07:36:21;;;;;;;9.83;3.90;;;;;;;31.28;37.14;100344.76;3544102;80;98684;-81
2022/06/24 07:41:22;;;;;;;9.48;3.83;;;;;;;31.53;36.88;100342.87;3550903;81;98035;-79
2022/06/24 07:46:23;;;;;;;6.30;3.12;;;;;;;31.68;36.47;100341.91;3535645;81;99326;-78
2022/06/24 07:51:24;;;;;;;5.97;2.95;;;;;;;32.11;36.53;100338.09;3545161;80;99320;-78
2022/06/24 08:01:45;;;;;;;8.15;3.50;;;;;;;32.01;35.78;100324.05;3523500;82;99025;-78
2022/06/24 08:06:49;;;;;;;8.00;3.22;;;;;;;32.29;35.14;100326.72;3517909;82;33373;-78
2022/06/24 08:11:50;;;;;;;7.72;3.50;;;;;;;32.75;35.55;100321.67;3525175;79;98583;-79
2022/06/24 08:16:51;;;;;;;7.17;3.58;;;;;;;33.14;34.13;100310.70;3553985;80;98753;-77
2022/06/24 08:21:52;;;;;;;11.30;4.40;;;;;;;32.61;34.58;100301.48;3528559;81;98529;-79
2022/06/24 08:26:53;;;;;;;10.35;3.25;;;;;;;33.19;34.93;100306.23;3520221;82;98545;-82
2022/06/24 08:31:54;;;;;;;7.40;3.58;;;;;;;33.50;33.29;100287.09;3512055;81;99104;-80
2022/06/24 08:36:55;;;;;;;6.97;3.50;;;;;;;33.69;32.90;100287.22;3538147;82;26474;-79
2022/06/24 08:41:58;;;;;;;6.65;3.40;;;;;;;33.81;32.59;100279.28;3515993;82;99056;-80
2022/06/24 08:46:59;;;;;;;9.40;3.90;;;;;;;33.93;32.68;100277.16;3531650;82;97910;-79
2022/06/24 08:52:01;;;;;;;10.28;3.80;;;;;;;34.41;32.16;100271.88;3520518;82;99268;-79
2022/06/24 08:57:04;;;;;;;8.10;3.40;;;;;;;34.58;31.63;100266.64;3529138;82;99181;-80
2022/06/24 09:02:07;;;;;;;8.75;3.25;;;;;;;34.82;31.87;100251.53;3517353;81;98727;-79
2022/06/24 09:07:25;;;;;;;10.98;3.72;;;;;;;34.73;30.83;100247.66;3505012;82;25623;-80
2022/06/24 09:12:38;;;;;;;8.55;2.80;;;;;;;34.66;29.96;100257.55;3541157;82;98932;-79
2022/06/24 09:17:41;;;;;;;12.68;4.53;;;;;;;34.83;30.49;100244.52;3549775;80;99142;-79
2022/06/24 09:22:42;;;;;;;11.70;3.83;;;;;;;34.89;29.60;100250.11;3514113;81;99438;-79
2022/06/24 09:27:46;;;;;;;5.47;3.00;;;;;;;35.15;29.65;100245.15;3530569;80;99772;-80
2022/06/24 09:32:55;;;;;;;6.30;2.67;;;;;;;35.52;29.14;100240.63;3532939;82;99352;-79
2022/06/24 09:37:56;;;;;;;8.18;3.17;;;;;;;35.73;28.96;100234.97;3548358;80;99356;-78
2022/06/24 09:43:05;;;;;;;8.20;3.45;;;;;;;35.47;28.88;100241.51;3525561;82;98911;-80
2022/06/24 09:48:07;;;;;;;9.93;3.22;;;;;;;35.44;27.72;100239.77;3514033;80;97907;-78
2022/06/24 09:53:09;;;;;;;32.28;5.08;;;;;;;35.44;28.17;100231.18;3517179;82;99153;-79
2022/06/24 09:58:10;;;;;;;9.55;2.90;;;;;;;35.43;27.50;100226.00;3514413;81;98689;-79
2022/06/24 10:03:12;;;;;;;13.10;3.40;;;;;;;35.50;28.43;100223.23;3517170;79;98908;-79
2022/06/24 10:08:20;;;;;;;6.75;2.65;;;;;;;36.21;28.56;100216.52;3529132;81;99811;-78
2022/06/24 10:13:28;;;;;;;12.95;3.65;;;;;;;36.37;27.72;100211.67;3518707;82;98901;-77
2022/06/24 10:18:41;;;;;;;8.10;3.27;;;;;;;36.56;27.59;100210.11;3521997;82;98465;-78
2022/06/24 10:23:49;;;;;;;5.35;3.00;;;;;;;36.88;27.04;100210.55;3529724;80;98503;-79
2022/06/24 10:29:08;;;;;;;9.28;3.20;;;;;;;36.65;27.17;100205.34;3516611;82;99340;-80
2022/06/24 10:34:13;;;;;;;5.28;2.62;;;;;;;36.31;26.00;100191.77;3523751;82;99307;-78
2022/06/24 10:39:23;;;;;;;6.80;2.80;;;;;;;36.41;26.91;100181.99;3518871;80;99207;-80
2022/06/24 10:44:32;;;;;;;6.67;2.80;;;;;;;36.25;26.04;100178.25;3524018;82;98875;-79
2022/06/24 10:49:59;;;;;;;6.60;2.67;;;;;;;36.44;25.83;100176.58;3533192;81;25927;-79
2022/06/24 10:55:28;;;;;;;7.53;2.70;;;;;;;36.61;26.16;100173.34;3548020;81;98585;-79
2022/06/24 11:00:39;;;;;;;8.40;2.60;;;;;;;36.48;25.25;100166.28;3542765;81;98820;-81
2022/06/24 11:05:45;;;;;;;6.70;2.70;;;;;;;36.66;25.22;100168.15;3552340;81;98734;-80
2022/06/24 11:10:47;;;;;;;13.35;3.42;;;;;;;35.88;24.82;100167.17;3546205;81;98951;-81
2022/06/24 11:15:55;;;;;;;9.53;2.17;;;;;;;36.13;25.40;100161.86;3524757;81;99580;-81
2022/06/24 11:21:05;;;;;;;5.35;2.67;;;;;;;36.45;23.94;100160.91;3554815;81;98788;-78
2022/06/24 11:26:18;;;;;;;4.35;2.20;;;;;;;36.45;24.35;100158.80;3547044;80;98848;-79
2022/06/24 11:31:29;;;;;;;5.10;2.37;;;;;;;36.44;24.17;100144.36;3543453;81;26475;-79
2022/06/24 11:36:36;;;;;;;7.65;2.70;;;;;;;36.30;24.27;100136.42;3541964;81;98485;-80
2022/06/24 11:41:42;;;;;;;5.10;2.25;;;;;;;36.24;23.37;100125.09;3546371;81;98917;-79
2022/06/24 11:46:52;;;;;;;6.33;2.05;;;;;;;36.42;23.52;100122.67;3539729;81;99256;-80
2022/06/24 11:51:53;;;;;;;4.65;2.12;;;;;;;36.18;24.26;100124.48;3539597;80;99247;-79
2022/06/24 11:56:55;;;;;;;7.45;2.37;;;;;;;36.18;23.53;100125.16;3567893;80;99352;-79
2022/06/24 12:01:57;;;;;;;6.95;2.10;;;;;;;36.45;24.16;100102.89;3546554;81;98822;-81
2022/06/24 12:06:59;;;;;;;7.95;2.80;;;;;;;36.43;23.93;100105.56;3552398;81;25866;-80
2022/06/24 12:12:11;;;;;;;8.78;2.17;;;;;;;36.41;23.70;100097.42;3547471;81;99194;-81
2022/06/24 12:17:12;;;;;;;3.50;1.85;;;;;;;36.11;23.70;100105.11;3542627;81;99116;-78
2022/06/24 12:22:18;;;;;;;5.65;2.15;;;;;;;35.71;24.41;100090.93;3540182;81;99293;-79
2022/06/24 12:27:19;;;;;;;5.00;2.17;;;;;;;35.83;23.33;100080.72;3549285;81;99719;-80
2022/06/24 12:32:20;;;;;;;3.52;2.08;;;;;;;36.08;23.08;100076.81;3542140;81;99248;-81
2022/06/24 12:37:22;;;;;;;4.45;2.15;;;;;;;35.99;23.45;100062.98;3540888;81;26566;-78
2022/06/24 12:42:24;;;;;;;3.50;1.95;;;;;;;35.82;24.05;100065.52;3540692;81;99028;-79
2022/06/24 12:52:47;;;;;;;8.03;2.02;;;;;;;35.59;23.89;100051.64;3551655;81;99181;-79
2022/06/24 12:57:48;;;;;;;5.97;2.02;;;;;;;35.63;23.84;100046.34;3540148;81;99229;-79
2022/06/24 13:02:54;;;;;;;3.83;2.00;;;;;;;35.36;23.85;100039.22;3542579;81;99274;-80
2022/06/24 13:07:55;;;;;;;7.90;2.00;;;;;;;35.36;23.85;100039.22;3553839;81;98082;-81
2022/06/24 13:12:56;;;;;;;11.55;2.80;;;;;;;35.40;23.53;100039.62;3540454;81;98684;-80
2022/06/24 13:17:57;;;;;;;8.93;2.33;;;;;;;35.29;23.41;100031.30;3544471;79;98821;-79
2022/06/24 13:22:58;;;;;;;5.90;2.27;;;;;;;35.51;24.38;100033.62;3542354;81;98703;-79
2022/06/24 13:27:59;;;;;;;4.55;2.22;;;;;;;35.27;24.64;100031.88;3536357;81;99202;-79
2022/06/24 13:33:01;;;;;;;4.47;2.40;;;;;;;35.02;24.78;100030.63;3532676;80;99134;-79
2022/06/24 13:38:02;;;;;;;5.60;2.25;;;;;;;34.64;25.23;100025.73;3562740;81;98888;-77
2022/06/24 13:43:03;;;;;;;3.12;1.90;;;;;;;34.66;25.09;100023.86;3547119;81;98801;-79
2022/06/24 13:48:06;;;;;;;6.47;1.98;;;;;;;34.64;25.18;100018.58;3546563;81;99141;-78
2022/06/24 13:53:07;;;;;;;6.03;1.90;;;;;;;34.69;25.18;100017.05;3542296;81;99059;-79
2022/06/24 13:58:10;;;;;;;5.90;2.00;;;;;;;34.63;25.11;100019.26;3551143;81;98891;-77
2022/06/24 14:03:12;;;;;;;3.97;1.87;;;;;;;34.27;24.99;100016.77;3545349;81;99169;-79
2022/06/24 14:08:13;;;;;;;8.18;1.80;;;;;;;34.10;25.31;100006.30;3534563;81;99281;-79
2022/06/24 14:13:14;;;;;;;6.40;1.98;;;;;;;33.85;25.12;100005.63;3530667;81;98752;-78
2022/06/24 14:18:15;;;;;;;7.58;2.87;;;;;;;33.84;25.36;100002.00;3547570;81;98692;-78
2022/06/24 14:28:36;;;;;;;7.25;2.17;;;;;;;33.50;25.76;99991.05;3548743;81;99087;-78
2022/06/24 14:33:37;;;;;;;5.47;2.42;;;;;;;33.29;25.82;99981.55;3523474;81;98840;-78
2022/06/24 14:43:58;;;;;;;6.40;2.50;;;;;;;33.43;26.21;99969.52;3520067;81;99073;-78
2022/06/24 14:48:59;;;;;;;4.60;2.30;;;;;;;33.32;26.17;99961.94;3527762;81;33271;-78
2022/06/24 14:53:59;;;;;;;6.50;2.40;;;;;;;33.21;25.93;99957.81;3508338;81;98707;-79
2022/06/24 14:59:01;;;;;;;8.00;2.60;;;;;;;32.81;26.43;99951.08;3527106;81;98585;-78
2022/06/24 15:04:02;;;;;;;8.45;2.02;;;;;;;32.68;26.81;99948.11;3527799;81;98738;-82
2022/06/24 15:09:03;;;;;;;7.15;2.20;;;;;;;32.59;26.34;99949.28;3537561;81;98603;-78
2022/06/24 15:14:04;;;;;;;5.85;2.80;;;;;;;32.35;26.59;99928.00;3524903;81;99042;-78
2022/06/24 15:19:05;;;;;;;5.87;2.27;;;;;;;32.29;27.17;99927.95;3541284;81;33326;-77
2022/06/24 15:24:06;;;;;;;3.75;2.20;;;;;;;31.99;27.41;99925.19;3531928;81;99107;-77
2022/06/24 15:29:07;;;;;;;5.15;2.30;;;;;;;31.92;27.66;99916.52;3539460;81;98814;-78
2022/06/24 15:34:08;;;;;;;5.50;2.65;;;;;;;31.85;27.72;99908.55;3508090;81;98599;-77
2022/06/24 15:39:09;;;;;;;6.30;2.30;;;;;;;31.69;28.04;99900.95;3545080;81;98688;-78
2022/06/24 15:44:10;;;;;;;8.28;2.20;;;;;;;31.50;28.19;99908.00;3538253;81;99112;-78
2022/06/24 15:49:12;;;;;;;23.62;3.58;;;;;;;31.37;28.25;99896.52;3543349;81;26709;-79
2022/06/24 15:54:14;;;;;;;4.15;2.10;;;;;;;31.20;27.75;99895.91;3520987;80;99044;-77
2022/06/24 15:59:16;;;;;;;5.47;1.92;;;;;;;31.04;28.28;99896.02;3524402;81;99089;-78
2022/06/24 16:04:17;;;;;;;5.12;1.82;;;;;;;30.92;28.73;99903.88;3504984;82;99225;-77
2022/06/24 16:09:18;;;;;;;20.43;3.33;;;;;;;30.77;28.41;99904.89;3548504;81;98688;-76
2022/06/24 16:14:19;;;;;;;3.12;1.87;;;;;;;30.53;28.65;99904.00;3532737;79;99285;-77
2022/06/24 16:19:20;;;;;;;6.35;2.40;;;;;;;30.18;29.02;99906.13;3535479;82;32305;-76
2022/06/24 16:24:21;;;;;;;5.95;2.33;;;;;;;29.95;29.36;99900.41;3532732;81;98833;-76
2022/06/24 16:29:22;;;;;;;8.03;2.12;;;;;;;29.72;29.79;99903.21;3537158;81;98960;-78
2022/06/24 16:34:24;;;;;;;5.65;2.05;;;;;;;29.55;30.30;99905.33;3495765;82;99137;-76
2022/06/24 16:39:25;;;;;;;6.70;2.20;;;;;;;29.41;30.60;99907.77;3506288;80;99014;-77
2022/06/24 16:44:26;;;;;;;6.30;1.62;;;;;;;29.24;30.88;99914.10;3525439;80;98759;-77
2022/06/24 16:49:27;;;;;;;5.92;1.90;;;;;;;29.11;31.10;99920.17;3521149;82;31701;-77
2022/06/24 16:54:28;;;;;;;10.30;2.65;;;;;;;28.94;30.86;99917.95;3527726;81;98837;-79
2022/06/24 16:59:29;;;;;;;8.90;2.12;;;;;;;28.82;30.92;99920.66;3529126;81;99419;-78
2022/06/24 17:04:30;;;;;;;3.62;1.92;;;;;;;28.72;31.17;99920.11;3551751;80;98848;-79
2022/06/24 17:09:31;;;;;;;4.78;2.35;;;;;;;28.55;31.47;99919.31;3534795;81;98570;-79
2022/06/24 17:14:32;;;;;;;4.30;2.15;;;;;;;28.43;31.71;99921.20;3560430;80;99022;-78
2022/06/24 17:19:32;;;;;;;5.30;2.10;;;;;;;28.30;31.89;99911.77;3553644;81;35176;-78
2022/06/24 17:24:33;;;;;;;4.70;2.02;;;;;;;28.15;32.14;99916.86;3551531;81;98753;-78
2022/06/24 17:29:34;;;;;;;3.92;2.00;;;;;;;28.00;32.27;99910.63;3556267;80;98864;-77
2022/06/24 17:34:36;;;;;;;8.43;2.35;;;;;;;27.85;32.51;99908.63;3556475;81;98986;-79
2022/06/24 17:39:37;;;;;;;5.00;2.17;;;;;;;27.72;32.84;99909.70;3550936;81;98717;-79
2022/06/24 17:44:38;;;;;;;4.83;2.08;;;;;;;27.61;33.04;99911.68;3557166;81;99034;-78
2022/06/24 17:49:40;;;;;;;4.62;2.12;;;;;;;27.50;33.35;99909.58;3540100;81;99066;-77
2022/06/24 17:54:42;;;;;;;6.03;2.10;;;;;;;27.38;33.69;99917.07;3545009;80;98803;-77
2022/06/24 17:59:43;;;;;;;3.92;1.85;;;;;;;27.27;33.97;99914.95;3540554;81;98841;-78
2022/06/24 18:04:44;;;;;;;4.87;1.87;;;;;;;27.16;34.24;99903.54;3549184;78;98881;-78
2022/06/24 18:09:45;;;;;;;8.40;2.27;;;;;;;27.04;34.35;99899.72;3561578;80;99179;-77
2022/06/24 18:14:46;;;;;;;9.48;2.50;;;;;;;26.90;34.67;99897.17;3537110;81;98753;-78
2022/06/24 18:19:48;;;;;;;5.78;2.40;;;;;;;26.78;34.89;99889.09;3533985;81;99148;-78
2022/06/24 18:24:49;;;;;;;4.95;2.15;;;;;;;26.64;35.26;99892.83;3543299;80;98666;-79
2022/06/24 18:29:50;;;;;;;9.30;2.52;;;;;;;26.49;35.55;99880.20;3543578;79;98912;-78
2022/06/24 18:34:51;;;;;;;5.00;2.35;;;;;;;26.33;35.95;99883.62;3538345;82;98468;-78
2022/06/24 18:39:52;;;;;;;8.00;2.22;;;;;;;26.19;36.32;99892.97;3534860;82;99021;-78
2022/06/24 18:44:53;;;;;;;7.53;2.37;;;;;;;26.05;36.80;99888.19;3534228;81;99087;-78
2022/06/24 18:49:54;;;;;;;11.30;2.90;;;;;;;25.91;37.15;99896.73;3518402;81;99068;-78
2022/06/24 18:54:55;;;;;;;5.70;2.37;;;;;;;25.78;37.63;99904.75;3566555;81;98588;-77
2022/06/24 18:59:56;;;;;;;9.25;2.85;;;;;;;25.64;38.16;99903.54;3553660;81;98814;-78
2022/06/24 19:04:58;;;;;;;7.25;3.00;;;;;;;25.50;38.25;99908.59;3561472;81;98566;-78
2022/06/24 19:09:59;;;;;;;8.48;3.15;;;;;;;25.38;38.62;99913.92;3537710;80;99071;-78
2022/06/24 19:15:00;;;;;;;6.35;2.80;;;;;;;25.22;39.17;99923.52;3541439;81;99224;-78
2022/06/24 19:20:01;;;;;;;6.55;2.58;;;;;;;25.09;39.60;99933.67;3566977;80;98656;-78
2022/06/24 19:25:03;;;;;;;7.47;3.30;;;;;;;24.98;40.05;99934.91;3553942;81;98621;-78
2022/06/24 19:30:06;;;;;;;12.43;3.45;;;;;;;24.84;40.28;99937.73;3550886;81;98897;-78
2022/06/24 19:35:07;;;;;;;10.45;3.55;;;;;;;24.69;40.68;99942.57;3548748;81;98780;-78
2022/06/24 19:40:09;;;;;;;5.70;2.80;;;;;;;24.59;41.24;99937.67;3561452;80;99204;-78
2022/06/24 19:45:10;;;;;;;7.05;2.92;;;;;;;24.47;41.51;99935.09;3554790;80;98688;-77
2022/06/24 19:50:11;;;;;;;5.35;2.20;;;;;;;24.33;41.68;99938.03;3552987;81;99056;-78
2022/06/24 19:55:13;;;;;;;5.10;2.20;;;;;;;24.21;41.85;99939.70;3560595;80;98579;-78
2022/06/24 20:00:14;;;;;;;6.37;2.75;;;;;;;24.10;42.11;99941.67;3539599;81;98688;-78
2022/06/24 20:10:35;;;;;;;6.55;3.25;;;;;;;23.94;42.81;99932.87;3548647;81;99040;-78
2022/06/24 20:15:37;;;;;;;6.30;2.50;;;;;;;23.83;43.22;99925.59;3535310;79;98710;-77
2022/06/24 20:20:40;;;;;;;7.35;2.98;;;;;;;23.76;43.49;99932.33;3569321;81;99069;-78
2022/06/24 20:25:45;;;;;;;6.92;2.80;;;;;;;23.65;43.26;99927.88;3534459;81;98678;-78
2022/06/24 20:30:44;;;;;;;5.75;2.50;;;;;;;23.54;43.59;99926.23;3548819;81;26051;-78
2022/06/24 20:35:45;;;;;;;5.45;2.65;;;;;;;23.47;43.78;99922.38;3531974;81;98426;-77
2022/06/24 20:40:46;;;;;;;6.33;2.72;;;;;;;23.39;44.15;99925.39;3551739;81;98724;-77
2022/06/24 20:45:47;;;;;;;7.47;2.50;;;;;;;23.35;44.93;99926.19;3539946;80;98668;-77
2022/06/24 20:50:49;;;;;;;5.90;2.70;;;;;;;23.25;44.49;99922.47;3570945;79;99201;-77
2022/06/24 20:55:50;;;;;;;6.42;2.77;;;;;;;23.16;45.18;99926.07;3469281;82;99109;-77
2022/06/24 21:00:51;;;;;;;8.00;2.80;;;;;;;23.10;45.47;99920.95;3471033;83;32492;-77
2022/06/24 21:05:53;;;;;;;6.33;2.60;;;;;;;23.03;45.58;99926.91;3470626;82;98493;-77
2022/06/24 21:10:55;;;;;;;7.40;3.15;;;;;;;22.98;46.11;99928.95;3476911;82;98625;-77
2022/06/24 21:15:56;;;;;;;6.42;3.15;;;;;;;22.93;46.87;99931.00;3470774;81;98732;-77
2022/06/24 21:20:58;;;;;;;6.00;2.45;;;;;;;22.86;46.67;99937.56;3479603;82;98792;-77
2022/06/24 21:25:59;;;;;;;8.80;2.95;;;;;;;22.78;47.24;99934.95;3467160;83;98706;-77
2022/06/24 21:31:00;;;;;;;5.97;2.17;;;;;;;22.71;47.01;99939.46;3481521;82;32591;-77
2022/06/24 21:36:01;;;;;;;4.75;2.62;;;;;;;22.64;47.41;99933.57;3507451;82;98792;-78
2022/06/24 21:41:03;;;;;;;4.50;2.42;;;;;;;22.54;47.51;99939.04;3502772;82;99005;-79
2022/06/24 21:46:04;;;;;;;7.00;2.65;;;;;;;22.47;48.23;99937.17;3501613;82;99262;-78
2022/06/24 21:51:05;;;;;;;6.47;2.58;;;;;;;22.44;48.42;99940.30;3486036;83;98708;-78
2022/06/24 21:56:06;;;;;;;6.40;2.95;;;;;;;22.37;48.64;99946.80;3539758;80;98713;-78
2022/06/24 22:01:07;;;;;;;6.78;2.58;;;;;;;22.30;49.19;99945.12;3598633;80;32550;-79
2022/06/24 22:06:08;;;;;;;7.17;2.80;;;;;;;22.24;49.42;99943.39;3597998;80;98437;-78
2022/06/24 22:11:10;;;;;;;6.85;2.90;;;;;;;22.20;49.65;99948.37;3593223;80;98546;-78
2022/06/24 22:16:11;;;;;;;6.42;2.70;;;;;;;22.17;50.88;99947.92;3579215;79;98622;-79
2022/06/24 22:21:12;;;;;;;7.65;2.77;;;;;;;22.13;50.72;99943.84;3596676;80;98927;-78
2022/06/24 22:26:13;;;;;;;6.78;3.08;;;;;;;22.10;50.76;99953.81;3585534;80;98712;-78
2022/06/24 22:31:15;;;;;;;10.50;3.37;;;;;;;22.04;50.81;99950.87;3594054;80;32462;-78
2022/06/24 22:36:17;;;;;;;7.10;3.30;;;;;;;22.00;51.04;99956.45;3577657;80;98708;-79
2022/06/24 22:41:18;;;;;;;6.15;3.00;;;;;;;21.98;51.25;99957.55;3578102;80;98643;-78
2022/06/24 22:46:19;;;;;;;8.15;3.20;;;;;;;21.93;51.39;99957.55;3588702;80;98724;-78
2022/06/24 22:51:20;;;;;;;7.10;3.20;;;;;;;21.91;51.92;99955.81;3576008;80;98661;-78
2022/06/24 22:56:21;;;;;;;5.90;3.02;;;;;;;21.88;52.98;99957.37;3504116;80;98628;-78
2022/06/24 23:01:22;;;;;;;10.75;3.27;;;;;;;21.84;52.44;99955.33;3481615;82;32470;-79
2022/06/24 23:06:23;;;;;;;7.95;3.40;;;;;;;21.78;52.84;99953.78;3475355;83;98721;-80
2022/06/24 23:11:24;;;;;;;10.32;3.80;;;;;;;21.73;53.59;99953.59;3467385;82;98456;-80
2022/06/24 23:16:26;;;;;;;7.53;3.33;;;;;;;21.64;54.05;99954.33;3487554;81;99210;-78
2022/06/24 23:21:27;;;;;;;7.65;3.65;;;;;;;21.56;54.37;99950.88;3468609;82;98699;-78
2022/06/24 23:26:28;;;;;;;7.53;3.22;;;;;;;21.51;55.15;99946.68;3456692;80;98920;-78
2022/06/24 23:31:31;;;;;;;6.58;3.25;;;;;;;21.46;55.50;99941.69;3422961;83;98708;-77
2022/06/24 23:36:33;;;;;;;7.00;3.47;;;;;;;21.36;55.14;99956.13;3436853;83;98519;-78
2022/06/24 23:41:34;;;;;;;5.83;3.30;;;;;;;21.30;56.07;99962.17;3452404;83;98812;-78
2022/06/24 23:46:35;;;;;;;9.25;3.70;;;;;;;21.22;56.64;99960.88;3501353;82;99086;-77
2022/06/24 23:51:36;;;;;;;10.33;4.67;;;;;;;21.09;57.05;99955.37;3514076;82;99084;-77
2022/06/24 23:56:37;;;;;;;9.83;4.60;;;;;;;21.00;57.34;99951.16;3555627;81;98876;-78
